sensor_id;sensor_type;location;lat;lon;timestamp;P1;durP1;ratioP1;P2;durP2;ratioP2
2486;SDS011;1254;49.144;8.212;2022-08-19T00:00:37;19.00;;;17.20;;
2486;SDS011;1254;49.144;8.212;2022-08-19T00:03:05;20.47;;;18.40;;
2486;SDS011;1254;49.144;8.212;2022-08-19T00:05:33;20.23;;;18.40;;
2486;SDS011;1254;49.144;8.212;2022-08-19T00:07:59;20.23;;;18.10;;
2486;SDS011;1254;49.144;8.212;2022-08-19T00:10:26;20.13;;;18.23;;
2486;SDS011;1254;49.144;8.212;2022-08-19T00:12:52;21.13;;;18.40;;
2486;SDS011;1254;49.144;8.212;2022-08-19T00:15:19;24.13;;;19.20;;
2486;SDS011;1254;49.144;8.212;2022-08-19T00:17:48;21.43;;;19.27;;
2486;SDS011;1254;49.144;8.212;2022-08-19T00:20:16;20.07;;;18.07;;
2486;SDS011;1254;49.144;8.212;2022-08-19T00:22:45;21.37;;;18.50;;
2486;SDS011;1254;49.144;8.212;2022-08-19T00:25:13;20.27;;;18.27;;
2486;SDS011;1254;49.144;8.212;2022-08-19T00:27:41;24.30;;;20.03;;
2486;SDS011;1254;49.144;8.212;2022-08-19T00:30:08;20.30;;;18.23;;
2486;SDS011;1254;49.144;8.212;2022-08-19T00:32:36;20.60;;;18.60;;
2486;SDS011;1254;49.144;8.212;2022-08-19T00:35:03;21.20;;;18.93;;
2486;SDS011;1254;49.144;8.212;2022-08-19T00:37:30;20.80;;;18.77;;
2486;SDS011;1254;49.144;8.212;2022-08-19T00:39:58;20.13;;;18.03;;
2486;SDS011;1254;49.144;8.212;2022-08-19T00:42:25;22.37;;;20.07;;
2486;SDS011;1254;49.144;8.212;2022-08-19T00:44:54;27.60;;;19.57;;
2486;SDS011;1254;49.144;8.212;2022-08-19T00:47:20;22.37;;;20.10;;
2486;SDS011;1254;49.144;8.212;2022-08-19T00:52:21;21.93;;;19.63;;
2486;SDS011;1254;49.144;8.212;2022-08-19T00:54:51;21.00;;;19.00;;
2486;SDS011;1254;49.144;8.212;2022-08-19T00:57:19;21.47;;;19.27;;
2486;SDS011;1254;49.144;8.212;2022-08-19T00:59:54;22.50;;;20.20;;
2486;SDS011;1254;49.144;8.212;2022-08-19T01:02:22;22.07;;;19.77;;
2486;SDS011;1254;49.144;8.212;2022-08-19T01:04:53;20.03;;;18.20;;
2486;SDS011;1254;49.144;8.212;2022-08-19T01:07:20;21.73;;;19.50;;
2486;SDS011;1254;49.144;8.212;2022-08-19T01:09:46;22.07;;;20.00;;
2486;SDS011;1254;49.144;8.212;2022-08-19T01:12:13;21.23;;;19.13;;
2486;SDS011;1254;49.144;8.212;2022-08-19T01:14:40;23.10;;;19.80;;
2486;SDS011;1254;49.144;8.212;2022-08-19T01:17:08;22.87;;;20.07;;
2486;SDS011;1254;49.144;8.212;2022-08-19T01:19:37;20.93;;;18.83;;
2486;SDS011;1254;49.144;8.212;2022-08-19T01:22:42;22.23;;;19.60;;
2486;SDS011;1254;49.144;8.212;2022-08-19T01:25:08;22.57;;;20.37;;
2486;SDS011;1254;49.144;8.212;2022-08-19T01:27:43;22.27;;;20.27;;
2486;SDS011;1254;49.144;8.212;2022-08-19T01:30:15;24.03;;;21.63;;
2486;SDS011;1254;49.144;8.212;2022-08-19T01:32:45;22.37;;;20.27;;
2486;SDS011;1254;49.144;8.212;2022-08-19T01:35:12;22.83;;;20.73;;
2486;SDS011;1254;49.144;8.212;2022-08-19T01:37:50;22.90;;;20.60;;
2486;SDS011;1254;49.144;8.212;2022-08-19T01:40:20;21.47;;;19.47;;
2486;SDS011;1254;49.144;8.212;2022-08-19T01:42:48;23.57;;;21.27;;
2486;SDS011;1254;49.144;8.212;2022-08-19T01:45:16;21.30;;;19.20;;
2486;SDS011;1254;49.144;8.212;2022-08-19T01:47:43;21.03;;;18.83;;
2486;SDS011;1254;49.144;8.212;2022-08-19T01:50:10;22.70;;;20.43;;
2486;SDS011;1254;49.144;8.212;2022-08-19T01:52:39;21.23;;;19.13;;
2486;SDS011;1254;49.144;8.212;2022-08-19T01:55:08;23.33;;;20.90;;
2486;SDS011;1254;49.144;8.212;2022-08-19T01:57:37;22.10;;;19.90;;
2486;SDS011;1254;49.144;8.212;2022-08-19T02:00:08;21.10;;;19.03;;
2486;SDS011;1254;49.144;8.212;2022-08-19T02:02:37;22.20;;;20.00;;
2486;SDS011;1254;49.144;8.212;2022-08-19T02:05:06;23.13;;;20.97;;
2486;SDS011;1254;49.144;8.212;2022-08-19T02:07:34;22.13;;;19.97;;
2486;SDS011;1254;49.144;8.212;2022-08-19T02:10:05;23.57;;;21.40;;
2486;SDS011;1254;49.144;8.212;2022-08-19T02:12:33;25.40;;;19.70;;
2486;SDS011;1254;49.144;8.212;2022-08-19T02:15:01;24.83;;;21.23;;
2486;SDS011;1254;49.144;8.212;2022-08-19T02:17:28;24.03;;;20.80;;
2486;SDS011;1254;49.144;8.212;2022-08-19T02:19:56;21.30;;;19.10;;
2486;SDS011;1254;49.144;8.212;2022-08-19T02:22:23;22.73;;;20.43;;
2486;SDS011;1254;49.144;8.212;2022-08-19T02:24:51;25.13;;;20.70;;
2486;SDS011;1254;49.144;8.212;2022-08-19T02:27:19;23.33;;;21.03;;
2486;SDS011;1254;49.144;8.212;2022-08-19T02:29:47;23.47;;;21.27;;
2486;SDS011;1254;49.144;8.212;2022-08-19T02:32:15;23.23;;;20.90;;
2486;SDS011;1254;49.144;8.212;2022-08-19T02:34:42;23.30;;;20.80;;
2486;SDS011;1254;49.144;8.212;2022-08-19T02:37:08;24.10;;;21.47;;
2486;SDS011;1254;49.144;8.212;2022-08-19T02:39:55;22.37;;;20.20;;
2486;SDS011;1254;49.144;8.212;2022-08-19T02:42:21;21.83;;;19.77;;
2486;SDS011;1254;49.144;8.212;2022-08-19T02:44:48;23.80;;;21.40;;
2486;SDS011;1254;49.144;8.212;2022-08-19T02:47:14;24.13;;;21.83;;
2486;SDS011;1254;49.144;8.212;2022-08-19T02:49:41;23.20;;;20.97;;
2486;SDS011;1254;49.144;8.212;2022-08-19T02:52:07;26.40;;;21.70;;
2486;SDS011;1254;49.144;8.212;2022-08-19T02:54:34;23.70;;;21.50;;
2486;SDS011;1254;49.144;8.212;2022-08-19T02:57:00;24.23;;;21.93;;
2486;SDS011;1254;49.144;8.212;2022-08-19T02:59:29;23.17;;;20.93;;
2486;SDS011;1254;49.144;8.212;2022-08-19T03:01:56;21.90;;;19.77;;
2486;SDS011;1254;49.144;8.212;2022-08-19T03:04:23;23.27;;;20.87;;
2486;SDS011;1254;49.144;8.212;2022-08-19T03:06:50;24.83;;;22.33;;
2486;SDS011;1254;49.144;8.212;2022-08-19T03:09:17;25.83;;;23.40;;
2486;SDS011;1254;49.144;8.212;2022-08-19T03:11:45;24.20;;;21.90;;
2486;SDS011;1254;49.144;8.212;2022-08-19T03:14:12;26.10;;;23.60;;
2486;SDS011;1254;49.144;8.212;2022-08-19T03:16:42;26.40;;;23.80;;
2486;SDS011;1254;49.144;8.212;2022-08-19T03:19:11;28.73;;;22.73;;
2486;SDS011;1254;49.144;8.212;2022-08-19T03:21:38;26.53;;;23.80;;
2486;SDS011;1254;49.144;8.212;2022-08-19T03:24:06;26.30;;;23.60;;
2486;SDS011;1254;49.144;8.212;2022-08-19T03:26:34;26.80;;;24.40;;
2486;SDS011;1254;49.144;8.212;2022-08-19T03:29:04;27.50;;;24.57;;
2486;SDS011;1254;49.144;8.212;2022-08-19T03:31:31;25.73;;;23.10;;
2486;SDS011;1254;49.144;8.212;2022-08-19T03:33:58;27.50;;;24.90;;
2486;SDS011;1254;49.144;8.212;2022-08-19T03:36:25;27.03;;;24.40;;
2486;SDS011;1254;49.144;8.212;2022-08-19T03:38:55;25.27;;;22.87;;
2486;SDS011;1254;49.144;8.212;2022-08-19T03:41:26;26.90;;;24.40;;
2486;SDS011;1254;49.144;8.212;2022-08-19T03:43:54;25.40;;;22.97;;
2486;SDS011;1254;49.144;8.212;2022-08-19T03:46:22;25.57;;;23.00;;
2486;SDS011;1254;49.144;8.212;2022-08-19T03:48:52;24.50;;;22.20;;
2486;SDS011;1254;49.144;8.212;2022-08-19T03:51:21;24.50;;;22.30;;
2486;SDS011;1254;49.144;8.212;2022-08-19T03:53:51;24.10;;;21.60;;
2486;SDS011;1254;49.144;8.212;2022-08-19T03:56:19;25.07;;;22.77;;
2486;SDS011;1254;49.144;8.212;2022-08-19T03:58:46;26.10;;;23.80;;
2486;SDS011;1254;49.144;8.212;2022-08-19T04:01:14;25.37;;;23.03;;
2486;SDS011;1254;49.144;8.212;2022-08-19T04:03:43;24.20;;;21.93;;
2486;SDS011;1254;49.144;8.212;2022-08-19T04:06:12;24.13;;;21.50;;
2486;SDS011;1254;49.144;8.212;2022-08-19T04:08:42;25.60;;;23.30;;
2486;SDS011;1254;49.144;8.212;2022-08-19T04:11:10;24.90;;;22.23;;
2486;SDS011;1254;49.144;8.212;2022-08-19T04:13:39;25.33;;;22.53;;
2486;SDS011;1254;49.144;8.212;2022-08-19T04:16:06;26.47;;;22.03;;
2486;SDS011;1254;49.144;8.212;2022-08-19T04:18:33;24.90;;;22.37;;
2486;SDS011;1254;49.144;8.212;2022-08-19T04:20:59;28.17;;;22.33;;
2486;SDS011;1254;49.144;8.212;2022-08-19T04:23:26;24.77;;;22.57;;
2486;SDS011;1254;49.144;8.212;2022-08-19T04:25:54;24.80;;;22.30;;
2486;SDS011;1254;49.144;8.212;2022-08-19T04:28:21;23.37;;;21.27;;
2486;SDS011;1254;49.144;8.212;2022-08-19T04:30:50;22.77;;;20.80;;
2486;SDS011;1254;49.144;8.212;2022-08-19T04:33:18;25.97;;;23.23;;
2486;SDS011;1254;49.144;8.212;2022-08-19T04:35:48;22.63;;;20.50;;
2486;SDS011;1254;49.144;8.212;2022-08-19T04:38:17;23.30;;;21.00;;
2486;SDS011;1254;49.144;8.212;2022-08-19T04:40:46;23.17;;;20.80;;
2486;SDS011;1254;49.144;8.212;2022-08-19T04:43:33;25.20;;;22.67;;
2486;SDS011;1254;49.144;8.212;2022-08-19T04:46:05;24.30;;;21.63;;
2486;SDS011;1254;49.144;8.212;2022-08-19T04:48:36;26.83;;;21.87;;
2486;SDS011;1254;49.144;8.212;2022-08-19T04:51:08;24.43;;;21.33;;
2486;SDS011;1254;49.144;8.212;2022-08-19T04:53:39;22.97;;;20.87;;
2486;SDS011;1254;49.144;8.212;2022-08-19T04:56:08;24.83;;;22.50;;
2486;SDS011;1254;49.144;8.212;2022-08-19T04:58:41;23.47;;;21.27;;
2486;SDS011;1254;49.144;8.212;2022-08-19T05:01:11;26.63;;;22.73;;
2486;SDS011;1254;49.144;8.212;2022-08-19T05:03:50;25.30;;;22.87;;
2486;SDS011;1254;49.144;8.212;2022-08-19T05:06:18;22.23;;;20.13;;
2486;SDS011;1254;49.144;8.212;2022-08-19T05:08:46;25.67;;;21.60;;
2486;SDS011;1254;49.144;8.212;2022-08-19T05:11:14;23.47;;;21.23;;
2486;SDS011;1254;49.144;8.212;2022-08-19T05:13:50;22.90;;;20.90;;
2486;SDS011;1254;49.144;8.212;2022-08-19T05:16:19;22.53;;;20.37;;
2486;SDS011;1254;49.144;8.212;2022-08-19T05:18:47;24.13;;;21.90;;
2486;SDS011;1254;49.144;8.212;2022-08-19T05:21:33;27.40;;;20.70;;
2486;SDS011;1254;49.144;8.212;2022-08-19T05:24:18;22.77;;;20.67;;
2486;SDS011;1254;49.144;8.212;2022-08-19T05:26:47;24.33;;;22.03;;
2486;SDS011;1254;49.144;8.212;2022-08-19T05:29:16;27.60;;;22.50;;
2486;SDS011;1254;49.144;8.212;2022-08-19T05:31:44;22.20;;;20.27;;
2486;SDS011;1254;49.144;8.212;2022-08-19T05:34:12;21.07;;;19.03;;
2486;SDS011;1254;49.144;8.212;2022-08-19T05:36:40;22.67;;;20.67;;
2486;SDS011;1254;49.144;8.212;2022-08-19T05:39:10;31.47;;;28.37;;
2486;SDS011;1254;49.144;8.212;2022-08-19T05:41:42;22.67;;;20.20;;
2486;SDS011;1254;49.144;8.212;2022-08-19T05:44:10;22.40;;;20.13;;
2486;SDS011;1254;49.144;8.212;2022-08-19T05:46:37;22.30;;;20.00;;
2486;SDS011;1254;49.144;8.212;2022-08-19T05:49:05;21.30;;;19.30;;
2486;SDS011;1254;49.144;8.212;2022-08-19T05:51:33;21.17;;;19.37;;
2486;SDS011;1254;49.144;8.212;2022-08-19T05:54:03;22.13;;;19.90;;
2486;SDS011;1254;49.144;8.212;2022-08-19T05:56:31;20.10;;;18.23;;
2486;SDS011;1254;49.144;8.212;2022-08-19T05:59:01;21.17;;;19.07;;
2486;SDS011;1254;49.144;8.212;2022-08-19T06:01:28;19.73;;;18.13;;
2486;SDS011;1254;49.144;8.212;2022-08-19T06:03:54;20.77;;;18.60;;
2486;SDS011;1254;49.144;8.212;2022-08-19T06:06:21;20.40;;;18.60;;
2486;SDS011;1254;49.144;8.212;2022-08-19T06:08:47;19.47;;;17.67;;
2486;SDS011;1254;49.144;8.212;2022-08-19T06:14:25;19.47;;;17.77;;
2486;SDS011;1254;49.144;8.212;2022-08-19T06:16:56;20.57;;;18.37;;
2486;SDS011;1254;49.144;8.212;2022-08-19T06:19:25;20.37;;;18.43;;
2486;SDS011;1254;49.144;8.212;2022-08-19T06:21:54;20.10;;;18.50;;
2486;SDS011;1254;49.144;8.212;2022-08-19T06:24:21;18.63;;;16.83;;
2486;SDS011;1254;49.144;8.212;2022-08-19T06:26:50;18.93;;;16.57;;
2486;SDS011;1254;49.144;8.212;2022-08-19T06:29:19;19.40;;;17.60;;
2486;SDS011;1254;49.144;8.212;2022-08-19T06:31:48;18.07;;;16.50;;
2486;SDS011;1254;49.144;8.212;2022-08-19T06:34:16;16.77;;;15.27;;
2486;SDS011;1254;49.144;8.212;2022-08-19T06:36:45;16.35;;;14.93;;
2486;SDS011;1254;49.144;8.212;2022-08-19T06:39:21;16.70;;;15.20;;
2486;SDS011;1254;49.144;8.212;2022-08-19T06:41:51;15.73;;;14.47;;
2486;SDS011;1254;49.144;8.212;2022-08-19T06:44:21;16.10;;;14.70;;
2486;SDS011;1254;49.144;8.212;2022-08-19T06:46:49;15.60;;;14.40;;
2486;SDS011;1254;49.144;8.212;2022-08-19T06:49:16;15.60;;;13.90;;
2486;SDS011;1254;49.144;8.212;2022-08-19T06:51:43;14.97;;;13.70;;
2486;SDS011;1254;49.144;8.212;2022-08-19T06:54:13;15.53;;;14.13;;
2486;SDS011;1254;49.144;8.212;2022-08-19T06:56:40;15.17;;;13.97;;
2486;SDS011;1254;49.144;8.212;2022-08-19T06:59:08;16.30;;;14.10;;
2486;SDS011;1254;49.144;8.212;2022-08-19T07:01:37;15.23;;;13.93;;
2486;SDS011;1254;49.144;8.212;2022-08-19T07:04:06;13.50;;;12.30;;
2486;SDS011;1254;49.144;8.212;2022-08-19T07:06:35;15.23;;;13.93;;
2486;SDS011;1254;49.144;8.212;2022-08-19T07:09:05;16.00;;;14.37;;
2486;SDS011;1254;49.144;8.212;2022-08-19T07:11:32;14.57;;;13.43;;
2486;SDS011;1254;49.144;8.212;2022-08-19T07:13:59;14.33;;;12.93;;
2486;SDS011;1254;49.144;8.212;2022-08-19T07:16:27;14.30;;;12.10;;
2486;SDS011;1254;49.144;8.212;2022-08-19T07:18:54;13.30;;;12.10;;
2486;SDS011;1254;49.144;8.212;2022-08-19T07:21:23;13.77;;;12.47;;
2486;SDS011;1254;49.144;8.212;2022-08-19T07:23:55;14.03;;;12.73;;
2486;SDS011;1254;49.144;8.212;2022-08-19T07:26:26;13.37;;;12.07;;
2486;SDS011;1254;49.144;8.212;2022-08-19T07:28:55;12.90;;;11.87;;
2486;SDS011;1254;49.144;8.212;2022-08-19T07:31:23;13.47;;;12.37;;
2486;SDS011;1254;49.144;8.212;2022-08-19T07:33:51;14.83;;;11.73;;
2486;SDS011;1254;49.144;8.212;2022-08-19T07:36:22;12.90;;;11.67;;
2486;SDS011;1254;49.144;8.212;2022-08-19T07:38:51;13.50;;;11.97;;
2486;SDS011;1254;49.144;8.212;2022-08-19T07:41:21;13.03;;;11.67;;
2486;SDS011;1254;49.144;8.212;2022-08-19T07:43:51;14.33;;;12.53;;
2486;SDS011;1254;49.144;8.212;2022-08-19T07:46:18;13.70;;;12.50;;
2486;SDS011;1254;49.144;8.212;2022-08-19T07:48:47;14.77;;;13.30;;
2486;SDS011;1254;49.144;8.212;2022-08-19T07:51:18;12.30;;;11.10;;
2486;SDS011;1254;49.144;8.212;2022-08-19T07:53:46;12.40;;;11.37;;
2486;SDS011;1254;49.144;8.212;2022-08-19T07:56:17;14.23;;;12.87;;
2486;SDS011;1254;49.144;8.212;2022-08-19T07:58:45;12.57;;;11.37;;
2486;SDS011;1254;49.144;8.212;2022-08-19T08:01:15;12.63;;;11.17;;
2486;SDS011;1254;49.144;8.212;2022-08-19T08:03:48;13.67;;;12.33;;
2486;SDS011;1254;49.144;8.212;2022-08-19T08:06:34;16.00;;;11.00;;
2486;SDS011;1254;49.144;8.212;2022-08-19T08:09:21;17.13;;;11.23;;
2486;SDS011;1254;49.144;8.212;2022-08-19T08:11:52;11.80;;;10.73;;
2486;SDS011;1254;49.144;8.212;2022-08-19T08:14:24;11.93;;;10.70;;
2486;SDS011;1254;49.144;8.212;2022-08-19T08:16:55;11.37;;;10.30;;
2486;SDS011;1254;49.144;8.212;2022-08-19T08:19:24;12.53;;;11.33;;
2486;SDS011;1254;49.144;8.212;2022-08-19T08:21:56;12.37;;;11.37;;
2486;SDS011;1254;49.144;8.212;2022-08-19T08:24:24;12.53;;;10.07;;
2486;SDS011;1254;49.144;8.212;2022-08-19T08:26:52;11.93;;;10.67;;
2486;SDS011;1254;49.144;8.212;2022-08-19T08:29:18;12.60;;;11.37;;
2486;SDS011;1254;49.144;8.212;2022-08-19T08:31:45;15.60;;;12.27;;
2486;SDS011;1254;49.144;8.212;2022-08-19T08:34:13;12.60;;;11.53;;
2486;SDS011;1254;49.144;8.212;2022-08-19T08:36:42;11.90;;;10.90;;
2486;SDS011;1254;49.144;8.212;2022-08-19T08:39:12;12.17;;;11.07;;
2486;SDS011;1254;49.144;8.212;2022-08-19T08:41:44;11.63;;;10.73;;
2486;SDS011;1254;49.144;8.212;2022-08-19T08:47:20;12.57;;;11.47;;
2486;SDS011;1254;49.144;8.212;2022-08-19T08:49:50;12.10;;;10.90;;
2486;SDS011;1254;49.144;8.212;2022-08-19T08:52:45;11.93;;;10.73;;
2486;SDS011;1254;49.144;8.212;2022-08-19T08:55:18;11.67;;;10.47;;
2486;SDS011;1254;49.144;8.212;2022-08-19T09:00:27;10.67;;;9.73;;
2486;SDS011;1254;49.144;8.212;2022-08-19T09:03:09;12.90;;;11.47;;
2486;SDS011;1254;49.144;8.212;2022-08-19T09:05:48;10.73;;;9.43;;
2486;SDS011;1254;49.144;8.212;2022-08-19T09:08:40;10.53;;;9.63;;
2486;SDS011;1254;49.144;8.212;2022-08-19T09:11:34;10.40;;;9.17;;
2486;SDS011;1254;49.144;8.212;2022-08-19T09:17:12;11.20;;;10.10;;
2486;SDS011;1254;49.144;8.212;2022-08-19T09:19:49;11.43;;;10.23;;
2486;SDS011;1254;49.144;8.212;2022-08-19T09:22:22;10.93;;;9.27;;
2486;SDS011;1254;49.144;8.212;2022-08-19T09:24:49;10.03;;;9.30;;
2486;SDS011;1254;49.144;8.212;2022-08-19T09:27:18;9.50;;;8.70;;
2486;SDS011;1254;49.144;8.212;2022-08-19T09:29:46;10.70;;;9.60;;
2486;SDS011;1254;49.144;8.212;2022-08-19T09:32:14;11.00;;;10.00;;
2486;SDS011;1254;49.144;8.212;2022-08-19T09:34:41;11.33;;;9.60;;
2486;SDS011;1254;49.144;8.212;2022-08-19T09:37:07;10.17;;;9.23;;
2486;SDS011;1254;49.144;8.212;2022-08-19T09:39:33;10.30;;;9.50;;
2486;SDS011;1254;49.144;8.212;2022-08-19T09:42:00;9.50;;;8.60;;
2486;SDS011;1254;49.144;8.212;2022-08-19T09:44:29;10.10;;;9.20;;
2486;SDS011;1254;49.144;8.212;2022-08-19T09:46:55;9.17;;;8.50;;
2486;SDS011;1254;49.144;8.212;2022-08-19T09:49:22;22.33;;;9.03;;
2486;SDS011;1254;49.144;8.212;2022-08-19T09:51:51;9.47;;;8.73;;
2486;SDS011;1254;49.144;8.212;2022-08-19T09:54:20;8.97;;;8.23;;
2486;SDS011;1254;49.144;8.212;2022-08-19T09:56:47;8.93;;;8.13;;
2486;SDS011;1254;49.144;8.212;2022-08-19T09:59:13;9.33;;;8.47;;
2486;SDS011;1254;49.144;8.212;2022-08-19T10:01:40;34.97;;;9.67;;
2486;SDS011;1254;49.144;8.212;2022-08-19T10:04:06;8.70;;;8.00;;
2486;SDS011;1254;49.144;8.212;2022-08-19T10:06:37;9.20;;;8.40;;
2486;SDS011;1254;49.144;8.212;2022-08-19T10:09:06;8.43;;;7.70;;
2486;SDS011;1254;49.144;8.212;2022-08-19T10:11:33;8.40;;;7.80;;
2486;SDS011;1254;49.144;8.212;2022-08-19T10:14:01;7.87;;;7.10;;
2486;SDS011;1254;49.144;8.212;2022-08-19T10:16:28;8.60;;;7.87;;
2486;SDS011;1254;49.144;8.212;2022-08-19T10:18:54;9.00;;;8.30;;
2486;SDS011;1254;49.144;8.212;2022-08-19T10:21:22;14.43;;;10.07;;
2486;SDS011;1254;49.144;8.212;2022-08-19T10:23:52;10.53;;;9.63;;
2486;SDS011;1254;49.144;8.212;2022-08-19T10:26:22;9.07;;;8.40;;
2486;SDS011;1254;49.144;8.212;2022-08-19T10:28:51;10.33;;;9.53;;
2486;SDS011;1254;49.144;8.212;2022-08-19T10:31:18;11.10;;;10.20;;
2486;SDS011;1254;49.144;8.212;2022-08-19T10:33:47;9.00;;;8.40;;
2486;SDS011;1254;49.144;8.212;2022-08-19T10:36:18;10.13;;;9.30;;
2486;SDS011;1254;49.144;8.212;2022-08-19T10:38:49;9.30;;;8.70;;
2486;SDS011;1254;49.144;8.212;2022-08-19T10:41:20;9.27;;;8.57;;
2486;SDS011;1254;49.144;8.212;2022-08-19T10:43:51;8.27;;;7.60;;
2486;SDS011;1254;49.144;8.212;2022-08-19T10:46:21;8.77;;;8.17;;
2486;SDS011;1254;49.144;8.212;2022-08-19T10:48:49;8.97;;;8.27;;
2486;SDS011;1254;49.144;8.212;2022-08-19T10:51:15;8.77;;;7.87;;
2486;SDS011;1254;49.144;8.212;2022-08-19T10:54:02;8.87;;;8.07;;
2486;SDS011;1254;49.144;8.212;2022-08-19T10:56:29;11.00;;;6.93;;
2486;SDS011;1254;49.144;8.212;2022-08-19T10:59:15;8.37;;;7.50;;
2486;SDS011;1254;49.144;8.212;2022-08-19T11:01:43;8.60;;;7.90;;
2486;SDS011;1254;49.144;8.212;2022-08-19T11:04:10;8.23;;;7.57;;
2486;SDS011;1254;49.144;8.212;2022-08-19T11:06:40;12.07;;;7.60;;
2486;SDS011;1254;49.144;8.212;2022-08-19T11:09:07;8.87;;;8.00;;
2486;SDS011;1254;49.144;8.212;2022-08-19T11:11:34;7.77;;;7.17;;
2486;SDS011;1254;49.144;8.212;2022-08-19T11:14:10;9.53;;;6.83;;
2486;SDS011;1254;49.144;8.212;2022-08-19T11:16:39;8.20;;;7.60;;
2486;SDS011;1254;49.144;8.212;2022-08-19T11:19:08;7.20;;;6.80;;
2486;SDS011;1254;49.144;8.212;2022-08-19T11:21:37;7.30;;;6.70;;
2486;SDS011;1254;49.144;8.212;2022-08-19T11:24:10;7.60;;;7.20;;
2486;SDS011;1254;49.144;8.212;2022-08-19T11:26:39;11.17;;;7.00;;
2486;SDS011;1254;49.144;8.212;2022-08-19T11:29:07;6.80;;;6.50;;
2486;SDS011;1254;49.144;8.212;2022-08-19T11:31:40;7.50;;;7.10;;
2486;SDS011;1254;49.144;8.212;2022-08-19T11:34:11;8.83;;;7.07;;
2486;SDS011;1254;49.144;8.212;2022-08-19T11:36:41;7.20;;;6.70;;
2486;SDS011;1254;49.144;8.212;2022-08-19T11:39:12;7.37;;;6.87;;
2486;SDS011;1254;49.144;8.212;2022-08-19T11:41:40;7.73;;;7.23;;
2486;SDS011;1254;49.144;8.212;2022-08-19T11:44:07;8.30;;;7.70;;
2486;SDS011;1254;49.144;8.212;2022-08-19T11:46:33;8.67;;;8.07;;
2486;SDS011;1254;49.144;8.212;2022-08-19T11:49:01;7.30;;;6.80;;
2486;SDS011;1254;49.144;8.212;2022-08-19T11:51:29;7.93;;;7.37;;
2486;SDS011;1254;49.144;8.212;2022-08-19T11:53:57;7.40;;;6.90;;
2486;SDS011;1254;49.144;8.212;2022-08-19T11:56:25;7.57;;;7.07;;
2486;SDS011;1254;49.144;8.212;2022-08-19T11:58:53;7.43;;;6.97;;
2486;SDS011;1254;49.144;8.212;2022-08-19T12:01:21;7.00;;;6.57;;
2486;SDS011;1254;49.144;8.212;2022-08-19T12:03:50;6.97;;;6.57;;
2486;SDS011;1254;49.144;8.212;2022-08-19T12:06:20;6.83;;;6.40;;
2486;SDS011;1254;49.144;8.212;2022-08-19T12:08:53;7.50;;;7.00;;
2486;SDS011;1254;49.144;8.212;2022-08-19T12:11:20;7.07;;;6.47;;
2486;SDS011;1254;49.144;8.212;2022-08-19T12:13:47;5.90;;;5.50;;
2486;SDS011;1254;49.144;8.212;2022-08-19T12:16:15;7.83;;;6.47;;
2486;SDS011;1254;49.144;8.212;2022-08-19T12:18:44;7.30;;;6.73;;
2486;SDS011;1254;49.144;8.212;2022-08-19T12:21:15;6.60;;;6.20;;
2486;SDS011;1254;49.144;8.212;2022-08-19T12:23:47;6.53;;;6.13;;
2486;SDS011;1254;49.144;8.212;2022-08-19T12:26:15;5.93;;;5.63;;
2486;SDS011;1254;49.144;8.212;2022-08-19T12:28:42;6.60;;;6.00;;
2486;SDS011;1254;49.144;8.212;2022-08-19T12:31:14;4.90;;;4.70;;
2486;SDS011;1254;49.144;8.212;2022-08-19T12:33:40;4.30;;;4.10;;
2486;SDS011;1254;49.144;8.212;2022-08-19T12:36:08;4.77;;;4.53;;
2486;SDS011;1254;49.144;8.212;2022-08-19T12:38:37;5.43;;;5.13;;
2486;SDS011;1254;49.144;8.212;2022-08-19T12:41:05;6.23;;;4.37;;
2486;SDS011;1254;49.144;8.212;2022-08-19T12:43:33;4.30;;;4.10;;
2486;SDS011;1254;49.144;8.212;2022-08-19T12:46:01;3.97;;;3.77;;
2486;SDS011;1254;49.144;8.212;2022-08-19T12:48:30;3.90;;;3.60;;
2486;SDS011;1254;49.144;8.212;2022-08-19T12:50:57;3.93;;;3.73;;
2486;SDS011;1254;49.144;8.212;2022-08-19T12:53:24;4.97;;;4.57;;
2486;SDS011;1254;49.144;8.212;2022-08-19T12:55:57;4.70;;;4.40;;
2486;SDS011;1254;49.144;8.212;2022-08-19T12:58:25;4.20;;;4.00;;
2486;SDS011;1254;49.144;8.212;2022-08-19T13:00:52;4.90;;;4.70;;
2486;SDS011;1254;49.144;8.212;2022-08-19T13:03:19;5.93;;;4.77;;
2486;SDS011;1254;49.144;8.212;2022-08-19T13:05:48;4.80;;;4.50;;
2486;SDS011;1254;49.144;8.212;2022-08-19T13:08:16;3.90;;;3.70;;
2486;SDS011;1254;49.144;8.212;2022-08-19T13:10:43;4.50;;;4.30;;
2486;SDS011;1254;49.144;8.212;2022-08-19T13:13:09;4.43;;;4.10;;
2486;SDS011;1254;49.144;8.212;2022-08-19T13:15:38;5.20;;;4.90;;
2486;SDS011;1254;49.144;8.212;2022-08-19T13:18:06;4.70;;;4.40;;
2486;SDS011;1254;49.144;8.212;2022-08-19T13:20:35;4.40;;;4.20;;
2486;SDS011;1254;49.144;8.212;2022-08-19T13:23:03;5.37;;;5.07;;
2486;SDS011;1254;49.144;8.212;2022-08-19T13:25:30;4.40;;;4.20;;
2486;SDS011;1254;49.144;8.212;2022-08-19T13:27:56;5.23;;;4.73;;
2486;SDS011;1254;49.144;8.212;2022-08-19T13:30:23;5.50;;;5.10;;
2486;SDS011;1254;49.144;8.212;2022-08-19T13:33:08;6.37;;;4.60;;
2486;SDS011;1254;49.144;8.212;2022-08-19T13:38:22;5.83;;;5.33;;
2486;SDS011;1254;49.144;8.212;2022-08-19T13:40:50;4.90;;;4.60;;
2486;SDS011;1254;49.144;8.212;2022-08-19T13:43:18;4.70;;;4.30;;
2486;SDS011;1254;49.144;8.212;2022-08-19T13:45:50;5.33;;;4.93;;
2486;SDS011;1254;49.144;8.212;2022-08-19T13:48:19;4.93;;;4.63;;
2486;SDS011;1254;49.144;8.212;2022-08-19T13:50:45;5.17;;;4.77;;
2486;SDS011;1254;49.144;8.212;2022-08-19T13:53:15;5.93;;;5.50;;
2486;SDS011;1254;49.144;8.212;2022-08-19T13:55:43;6.03;;;4.67;;
2486;SDS011;1254;49.144;8.212;2022-08-19T13:58:11;5.07;;;4.83;;
2486;SDS011;1254;49.144;8.212;2022-08-19T14:00:42;6.53;;;5.47;;
2486;SDS011;1254;49.144;8.212;2022-08-19T14:03:10;5.03;;;4.70;;
2486;SDS011;1254;49.144;8.212;2022-08-19T14:05:37;5.07;;;4.67;;
2486;SDS011;1254;49.144;8.212;2022-08-19T14:08:04;6.00;;;5.50;;
2486;SDS011;1254;49.144;8.212;2022-08-19T14:10:30;5.47;;;5.07;;
2486;SDS011;1254;49.144;8.212;2022-08-19T14:12:58;4.20;;;3.80;;
2486;SDS011;1254;49.144;8.212;2022-08-19T14:15:26;5.10;;;4.80;;
2486;SDS011;1254;49.144;8.212;2022-08-19T14:17:54;4.57;;;4.27;;
2486;SDS011;1254;49.144;8.212;2022-08-19T14:20:21;5.70;;;4.60;;
2486;SDS011;1254;49.144;8.212;2022-08-19T14:22:49;5.13;;;4.83;;
2486;SDS011;1254;49.144;8.212;2022-08-19T14:25:20;5.53;;;5.23;;
2486;SDS011;1254;49.144;8.212;2022-08-19T14:27:49;5.50;;;5.17;;
2486;SDS011;1254;49.144;8.212;2022-08-19T14:30:17;6.13;;;5.73;;
2486;SDS011;1254;49.144;8.212;2022-08-19T14:32:47;6.03;;;5.43;;
2486;SDS011;1254;49.144;8.212;2022-08-19T14:35:14;6.03;;;5.20;;
2486;SDS011;1254;49.144;8.212;2022-08-19T14:37:42;7.57;;;5.33;;
2486;SDS011;1254;49.144;8.212;2022-08-19T14:40:10;5.70;;;5.33;;
2486;SDS011;1254;49.144;8.212;2022-08-19T14:42:38;5.30;;;4.80;;
2486;SDS011;1254;49.144;8.212;2022-08-19T14:45:05;20.07;;;6.70;;
2486;SDS011;1254;49.144;8.212;2022-08-19T14:47:32;5.50;;;5.00;;
2486;SDS011;1254;49.144;8.212;2022-08-19T14:49:59;10.03;;;5.93;;
2486;SDS011;1254;49.144;8.212;2022-08-19T14:52:25;5.47;;;5.07;;
2486;SDS011;1254;49.144;8.212;2022-08-19T14:54:52;7.17;;;4.80;;
2486;SDS011;1254;49.144;8.212;2022-08-19T14:57:18;8.90;;;5.80;;
2486;SDS011;1254;49.144;8.212;2022-08-19T14:59:45;5.63;;;4.93;;
2486;SDS011;1254;49.144;8.212;2022-08-19T15:02:12;5.40;;;4.97;;
2486;SDS011;1254;49.144;8.212;2022-08-19T15:04:38;9.87;;;4.90;;
2486;SDS011;1254;49.144;8.212;2022-08-19T15:07:06;6.63;;;5.03;;
2486;SDS011;1254;49.144;8.212;2022-08-19T15:09:33;7.67;;;5.20;;
2486;SDS011;1254;49.144;8.212;2022-08-19T15:12:00;5.90;;;5.00;;
2486;SDS011;1254;49.144;8.212;2022-08-19T15:14:27;7.97;;;5.27;;
2486;SDS011;1254;49.144;8.212;2022-08-19T15:17:01;4.93;;;4.70;;
2486;SDS011;1254;49.144;8.212;2022-08-19T15:19:29;5.47;;;5.03;;
2486;SDS011;1254;49.144;8.212;2022-08-19T15:21:56;5.03;;;4.67;;
2486;SDS011;1254;49.144;8.212;2022-08-19T15:24:23;6.07;;;5.27;;
2486;SDS011;1254;49.144;8.212;2022-08-19T15:26:53;6.27;;;4.93;;